sensor_id;sensor_type;location;lat;lon;timestamp;temperature;humidity
60635;DHT22;46454;53.170;6.630;2022-07-06T00:00:49;15.00;98.00
60635;DHT22;46454;53.170;6.630;2022-07-06T00:03:15;15.00;97.70
60635;DHT22;46454;53.170;6.630;2022-07-06T00:05:41;14.90;97.50
60635;DHT22;46454;53.170;6.630;2022-07-06T00:08:07;14.90;97.60
60635;DHT22;46454;53.170;6.630;2022-07-06T00:10:32;14.90;97.60
60635;DHT22;46454;53.170;6.630;2022-07-06T00:12:58;14.90;97.50
60635;DHT22;46454;53.170;6.630;2022-07-06T00:15:24;14.90;97.50
60635;DHT22;46454;53.170;6.630;2022-07-06T00:17:49;14.90;97.30
60635;DHT22;46454;53.170;6.630;2022-07-06T00:20:15;14.80;97.30
60635;DHT22;46454;53.170;6.630;2022-07-06T00:22:41;14.80;97.10
60635;DHT22;46454;53.170;6.630;2022-07-06T00:25:07;14.80;97.40
60635;DHT22;46454;53.170;6.630;2022-07-06T00:27:33;14.80;97.40
60635;DHT22;46454;53.170;6.630;2022-07-06T00:29:59;14.80;97.30
60635;DHT22;46454;53.170;6.630;2022-07-06T00:32:25;14.70;97.30
60635;DHT22;46454;53.170;6.630;2022-07-06T00:34:52;14.70;97.40
60635;DHT22;46454;53.170;6.630;2022-07-06T00:37:18;14.70;97.20
60635;DHT22;46454;53.170;6.630;2022-07-06T00:39:44;14.70;97.50
60635;DHT22;46454;53.170;6.630;2022-07-06T00:42:09;14.70;97.80
60635;DHT22;46454;53.170;6.630;2022-07-06T00:44:35;14.70;97.60
60635;DHT22;46454;53.170;6.630;2022-07-06T00:47:01;14.60;97.50
60635;DHT22;46454;53.170;6.630;2022-07-06T00:49:26;14.60;97.60
60635;DHT22;46454;53.170;6.630;2022-07-06T00:52:11;14.60;97.70
60635;DHT22;46454;53.170;6.630;2022-07-06T00:54:39;14.60;97.90
60635;DHT22;46454;53.170;6.630;2022-07-06T00:57:06;14.60;97.80
60635;DHT22;46454;53.170;6.630;2022-07-06T00:59:32;14.60;98.00
60635;DHT22;46454;53.170;6.630;2022-07-06T01:01:58;14.60;98.00
60635;DHT22;46454;53.170;6.630;2022-07-06T01:04:24;14.50;98.00
60635;DHT22;46454;53.170;6.630;2022-07-06T01:06:49;14.50;98.10
60635;DHT22;46454;53.170;6.630;2022-07-06T01:09:16;14.50;98.00
60635;DHT22;46454;53.170;6.630;2022-07-06T01:11:50;14.50;98.10
60635;DHT22;46454;53.170;6.630;2022-07-06T01:14:17;14.50;98.10
60635;DHT22;46454;53.170;6.630;2022-07-06T01:16:43;14.50;98.10
60635;DHT22;46454;53.170;6.630;2022-07-06T01:19:09;14.50;98.30
60635;DHT22;46454;53.170;6.630;2022-07-06T01:21:37;14.50;98.50
60635;DHT22;46454;53.170;6.630;2022-07-06T01:24:03;14.50;98.70
60635;DHT22;46454;53.170;6.630;2022-07-06T01:26:30;14.50;98.80
60635;DHT22;46454;53.170;6.630;2022-07-06T01:28:55;14.50;98.90
60635;DHT22;46454;53.170;6.630;2022-07-06T01:31:23;14.50;98.70
60635;DHT22;46454;53.170;6.630;2022-07-06T01:33:51;14.50;98.90
60635;DHT22;46454;53.170;6.630;2022-07-06T01:36:17;14.50;98.80
60635;DHT22;46454;53.170;6.630;2022-07-06T01:38:48;14.50;98.80
60635;DHT22;46454;53.170;6.630;2022-07-06T01:41:13;14.50;98.70
60635;DHT22;46454;53.170;6.630;2022-07-06T01:43:39;14.40;98.40
60635;DHT22;46454;53.170;6.630;2022-07-06T01:46:05;14.40;98.10
60635;DHT22;46454;53.170;6.630;2022-07-06T01:48:31;14.40;98.20
60635;DHT22;46454;53.170;6.630;2022-07-06T01:50:57;14.40;98.30
60635;DHT22;46454;53.170;6.630;2022-07-06T01:53:22;14.40;98.50
60635;DHT22;46454;53.170;6.630;2022-07-06T01:55:48;14.40;98.60
60635;DHT22;46454;53.170;6.630;2022-07-06T01:58:14;14.40;98.60
60635;DHT22;46454;53.170;6.630;2022-07-06T02:00:40;14.40;98.80
60635;DHT22;46454;53.170;6.630;2022-07-06T02:03:06;14.40;99.00
60635;DHT22;46454;53.170;6.630;2022-07-06T02:05:32;14.40;99.00
60635;DHT22;46454;53.170;6.630;2022-07-06T02:07:57;14.40;99.00
60635;DHT22;46454;53.170;6.630;2022-07-06T02:10:23;14.40;98.90
60635;DHT22;46454;53.170;6.630;2022-07-06T02:12:49;14.40;98.80
60635;DHT22;46454;53.170;6.630;2022-07-06T02:15:15;14.40;99.00
60635;DHT22;46454;53.170;6.630;2022-07-06T02:17:40;14.40;99.20
60635;DHT22;46454;53.170;6.630;2022-07-06T02:20:06;14.40;99.00
60635;DHT22;46454;53.170;6.630;2022-07-06T02:22:32;14.40;99.00
60635;DHT22;46454;53.170;6.630;2022-07-06T02:24:58;14.40;99.00
60635;DHT22;46454;53.170;6.630;2022-07-06T02:27:23;14.40;99.20
60635;DHT22;46454;53.170;6.630;2022-07-06T02:29:50;14.40;99.00
60635;DHT22;46454;53.170;6.630;2022-07-06T02:32:16;14.40;99.10
60635;DHT22;46454;53.170;6.630;2022-07-06T02:34:42;14.30;99.00
60635;DHT22;46454;53.170;6.630;2022-07-06T02:37:08;14.30;99.20
60635;DHT22;46454;53.170;6.630;2022-07-06T02:39:34;14.40;99.20
60635;DHT22;46454;53.170;6.630;2022-07-06T02:41:59;14.30;99.30
60635;DHT22;46454;53.170;6.630;2022-07-06T02:44:25;14.30;99.20
60635;DHT22;46454;53.170;6.630;2022-07-06T02:46:51;14.30;99.10
60635;DHT22;46454;53.170;6.630;2022-07-06T02:49:16;14.20;99.10
60635;DHT22;46454;53.170;6.630;2022-07-06T02:51:42;14.20;99.00
60635;DHT22;46454;53.170;6.630;2022-07-06T02:54:08;14.10;99.10
60635;DHT22;46454;53.170;6.630;2022-07-06T02:56:33;14.10;99.30
60635;DHT22;46454;53.170;6.630;2022-07-06T02:58:59;14.00;99.30
60635;DHT22;46454;53.170;6.630;2022-07-06T03:01:25;14.00;99.40
60635;DHT22;46454;53.170;6.630;2022-07-06T03:03:51;14.00;99.50
60635;DHT22;46454;53.170;6.630;2022-07-06T03:06:17;13.90;99.60
60635;DHT22;46454;53.170;6.630;2022-07-06T03:08:42;13.80;99.70
60635;DHT22;46454;53.170;6.630;2022-07-06T03:11:08;13.80;99.80
60635;DHT22;46454;53.170;6.630;2022-07-06T03:13:35;13.70;99.90
60635;DHT22;46454;53.170;6.630;2022-07-06T03:16:00;13.70;99.90
60635;DHT22;46454;53.170;6.630;2022-07-06T03:18:26;13.70;99.90
60635;DHT22;46454;53.170;6.630;2022-07-06T03:20:53;13.60;99.90
60635;DHT22;46454;53.170;6.630;2022-07-06T03:23:19;13.60;99.90
60635;DHT22;46454;53.170;6.630;2022-07-06T03:25:45;13.50;99.90
60635;DHT22;46454;53.170;6.630;2022-07-06T03:28:11;13.50;99.90
60635;DHT22;46454;53.170;6.630;2022-07-06T03:30:37;13.40;99.90
60635;DHT22;46454;53.170;6.630;2022-07-06T03:33:02;13.40;99.90
60635;DHT22;46454;53.170;6.630;2022-07-06T03:35:28;13.40;99.90
60635;DHT22;46454;53.170;6.630;2022-07-06T03:37:54;13.30;99.90
60635;DHT22;46454;53.170;6.630;2022-07-06T03:40:19;13.30;99.90
60635;DHT22;46454;53.170;6.630;2022-07-06T03:42:45;13.30;99.90
60635;DHT22;46454;53.170;6.630;2022-07-06T03:45:11;13.20;99.90
60635;DHT22;46454;53.170;6.630;2022-07-06T03:47:37;13.20;99.90
60635;DHT22;46454;53.170;6.630;2022-07-06T03:50:03;13.10;99.90
60635;DHT22;46454;53.170;6.630;2022-07-06T03:52:29;13.10;99.90
60635;DHT22;46454;53.170;6.630;2022-07-06T03:54:55;13.10;99.90
60635;DHT22;46454;53.170;6.630;2022-07-06T03:57:21;13.10;99.90
60635;DHT22;46454;53.170;6.630;2022-07-06T03:59:47;13.00;99.90
60635;DHT22;46454;53.170;6.630;2022-07-06T04:02:13;13.00;99.90
60635;DHT22;46454;53.170;6.630;2022-07-06T04:04:39;13.00;99.90
60635;DHT22;46454;53.170;6.630;2022-07-06T04:07:05;13.00;99.90
60635;DHT22;46454;53.170;6.630;2022-07-06T04:09:30;13.00;99.90
60635;DHT22;46454;53.170;6.630;2022-07-06T04:11:56;13.00;99.90
60635;DHT22;46454;53.170;6.630;2022-07-06T04:14:22;13.00;99.90
60635;DHT22;46454;53.170;6.630;2022-07-06T04:16:48;13.00;99.90
60635;DHT22;46454;53.170;6.630;2022-07-06T04:19:13;13.00;99.90
60635;DHT22;46454;53.170;6.630;2022-07-06T04:21:40;13.00;99.90
60635;DHT22;46454;53.170;6.630;2022-07-06T04:24:06;13.00;99.90
60635;DHT22;46454;53.170;6.630;2022-07-06T04:26:31;13.00;99.90
60635;DHT22;46454;53.170;6.630;2022-07-06T04:28:57;13.00;99.90
60635;DHT22;46454;53.170;6.630;2022-07-06T04:31:23;13.10;99.90
60635;DHT22;46454;53.170;6.630;2022-07-06T04:33:48;13.10;99.90
60635;DHT22;46454;53.170;6.630;2022-07-06T04:36:14;13.10;99.90
60635;DHT22;46454;53.170;6.630;2022-07-06T04:38:40;13.20;99.90
60635;DHT22;46454;53.170;6.630;2022-07-06T04:41:06;13.20;99.90
60635;DHT22;46454;53.170;6.630;2022-07-06T04:43:31;13.20;99.90
60635;DHT22;46454;53.170;6.630;2022-07-06T04:45:57;13.30;99.90
60635;DHT22;46454;53.170;6.630;2022-07-06T04:48:23;13.30;99.90
60635;DHT22;46454;53.170;6.630;2022-07-06T04:50:49;13.40;99.90
60635;DHT22;46454;53.170;6.630;2022-07-06T04:53:15;13.40;99.90
60635;DHT22;46454;53.170;6.630;2022-07-06T04:55:40;13.50;99.90
60635;DHT22;46454;53.170;6.630;2022-07-06T04:58:06;13.50;99.90
60635;DHT22;46454;53.170;6.630;2022-07-06T05:00:32;13.50;99.90
60635;DHT22;46454;53.170;6.630;2022-07-06T05:02:57;13.50;99.90
60635;DHT22;46454;53.170;6.630;2022-07-06T05:05:23;13.60;99.90
60635;DHT22;46454;53.170;6.630;2022-07-06T05:07:49;13.60;99.90
60635;DHT22;46454;53.170;6.630;2022-07-06T05:10:15;13.60;99.90
60635;DHT22;46454;53.170;6.630;2022-07-06T05:12:40;13.60;99.90
60635;DHT22;46454;53.170;6.630;2022-07-06T05:15:07;13.70;99.90
60635;DHT22;46454;53.170;6.630;2022-07-06T05:17:33;13.70;99.90
60635;DHT22;46454;53.170;6.630;2022-07-06T05:19:58;13.70;99.10
60635;DHT22;46454;53.170;6.630;2022-07-06T05:22:24;13.80;99.10
60635;DHT22;46454;53.170;6.630;2022-07-06T05:24:50;13.80;99.20
60635;DHT22;46454;53.170;6.630;2022-07-06T05:27:16;13.90;99.30
60635;DHT22;46454;53.170;6.630;2022-07-06T05:29:42;13.90;99.10
60635;DHT22;46454;53.170;6.630;2022-07-06T05:35:12;14.00;99.40
60635;DHT22;46454;53.170;6.630;2022-07-06T05:37:37;14.00;99.90
60635;DHT22;46454;53.170;6.630;2022-07-06T05:43:30;14.20;99.90
60635;DHT22;46454;53.170;6.630;2022-07-06T05:45:56;14.20;99.90
60635;DHT22;46454;53.170;6.630;2022-07-06T05:53:46;14.30;99.60
60635;DHT22;46454;53.170;6.630;2022-07-06T05:56:30;14.30;99.50
60635;DHT22;46454;53.170;6.630;2022-07-06T05:58:56;14.40;99.30
60635;DHT22;46454;53.170;6.630;2022-07-06T06:01:22;14.40;99.40
60635;DHT22;46454;53.170;6.630;2022-07-06T06:03:47;14.40;99.40
60635;DHT22;46454;53.170;6.630;2022-07-06T06:06:13;14.50;99.00
60635;DHT22;46454;53.170;6.630;2022-07-06T06:08:39;14.50;98.50
60635;DHT22;46454;53.170;6.630;2022-07-06T06:11:04;14.50;98.40
60635;DHT22;46454;53.170;6.630;2022-07-06T06:13:30;14.60;98.60
60635;DHT22;46454;53.170;6.630;2022-07-06T06:15:56;14.60;98.60
60635;DHT22;46454;53.170;6.630;2022-07-06T06:18:21;14.60;98.40
60635;DHT22;46454;53.170;6.630;2022-07-06T06:20:47;14.70;98.70
60635;DHT22;46454;53.170;6.630;2022-07-06T06:23:14;14.70;98.20
60635;DHT22;46454;53.170;6.630;2022-07-06T06:25:40;14.70;97.70
60635;DHT22;46454;53.170;6.630;2022-07-06T06:28:10;14.70;97.60
60635;DHT22;46454;53.170;6.630;2022-07-06T06:30:37;14.80;97.50
60635;DHT22;46454;53.170;6.630;2022-07-06T06:33:17;14.80;97.90
60635;DHT22;46454;53.170;6.630;2022-07-06T06:35:45;14.80;98.50
60635;DHT22;46454;53.170;6.630;2022-07-06T06:38:12;14.80;99.00
60635;DHT22;46454;53.170;6.630;2022-07-06T06:40:37;14.80;99.50
60635;DHT22;46454;53.170;6.630;2022-07-06T06:43:03;14.90;99.60
60635;DHT22;46454;53.170;6.630;2022-07-06T06:45:30;14.90;99.60
60635;DHT22;46454;53.170;6.630;2022-07-06T06:47:55;14.90;99.70
60635;DHT22;46454;53.170;6.630;2022-07-06T06:50:21;15.00;99.90
60635;DHT22;46454;53.170;6.630;2022-07-06T06:52:50;15.00;99.90
60635;DHT22;46454;53.170;6.630;2022-07-06T06:55:16;15.10;99.90
60635;DHT22;46454;53.170;6.630;2022-07-06T06:57:42;15.20;99.90
60635;DHT22;46454;53.170;6.630;2022-07-06T07:00:08;15.20;99.90
60635;DHT22;46454;53.170;6.630;2022-07-06T07:02:34;15.30;99.80
60635;DHT22;46454;53.170;6.630;2022-07-06T07:04:59;15.40;99.60
60635;DHT22;46454;53.170;6.630;2022-07-06T07:07:25;15.40;99.70
60635;DHT22;46454;53.170;6.630;2022-07-06T07:09:51;15.50;99.70
60635;DHT22;46454;53.170;6.630;2022-07-06T07:12:17;15.60;99.50
60635;DHT22;46454;53.170;6.630;2022-07-06T07:14:45;15.70;99.30
60635;DHT22;46454;53.170;6.630;2022-07-06T07:17:11;15.80;99.40
60635;DHT22;46454;53.170;6.630;2022-07-06T07:19:37;15.90;99.20
60635;DHT22;46454;53.170;6.630;2022-07-06T07:22:03;16.00;98.90
60635;DHT22;46454;53.170;6.630;2022-07-06T07:24:29;16.00;98.50
60635;DHT22;46454;53.170;6.630;2022-07-06T07:26:55;16.00;98.20
60635;DHT22;46454;53.170;6.630;2022-07-06T07:29:21;16.00;98.10
60635;DHT22;46454;53.170;6.630;2022-07-06T07:31:47;16.00;98.20
60635;DHT22;46454;53.170;6.630;2022-07-06T07:34:13;15.90;98.20
60635;DHT22;46454;53.170;6.630;2022-07-06T07:36:38;15.90;98.30
60635;DHT22;46454;53.170;6.630;2022-07-06T07:39:04;15.90;98.10
60635;DHT22;46454;53.170;6.630;2022-07-06T07:41:30;15.90;98.10
60635;DHT22;46454;53.170;6.630;2022-07-06T07:43:56;15.90;97.90
60635;DHT22;46454;53.170;6.630;2022-07-06T07:46:21;15.90;97.50
60635;DHT22;46454;53.170;6.630;2022-07-06T07:48:47;15.90;97.40
60635;DHT22;46454;53.170;6.630;2022-07-06T07:51:13;15.90;97.50
60635;DHT22;46454;53.170;6.630;2022-07-06T07:53:39;15.90;97.50
60635;DHT22;46454;53.170;6.630;2022-07-06T07:56:05;16.00;97.30
60635;DHT22;46454;53.170;6.630;2022-07-06T07:58:30;16.10;96.70
60635;DHT22;46454;53.170;6.630;2022-07-06T08:00:56;16.20;96.00
60635;DHT22;46454;53.170;6.630;2022-07-06T08:03:22;16.30;96.00
60635;DHT22;46454;53.170;6.630;2022-07-06T08:05:47;16.50;95.90
60635;DHT22;46454;53.170;6.630;2022-07-06T08:08:14;16.60;94.70
60635;DHT22;46454;53.170;6.630;2022-07-06T08:10:40;16.70;94.20
60635;DHT22;46454;53.170;6.630;2022-07-06T08:13:06;16.70;94.30
60635;DHT22;46454;53.170;6.630;2022-07-06T08:15:33;16.80;94.60
60635;DHT22;46454;53.170;6.630;2022-07-06T08:17:59;16.90;94.20
60635;DHT22;46454;53.170;6.630;2022-07-06T08:20:25;16.90;93.50
60635;DHT22;46454;53.170;6.630;2022-07-06T08:22:51;16.90;92.90
60635;DHT22;46454;53.170;6.630;2022-07-06T08:25:17;16.90;92.60
60635;DHT22;46454;53.170;6.630;2022-07-06T08:27:43;16.90;92.70
60635;DHT22;46454;53.170;6.630;2022-07-06T08:30:10;16.90;92.30
60635;DHT22;46454;53.170;6.630;2022-07-06T08:32:38;17.00;91.90
60635;DHT22;46454;53.170;6.630;2022-07-06T08:35:05;17.00;91.80
60635;DHT22;46454;53.170;6.630;2022-07-06T08:37:30;17.00;91.50
60635;DHT22;46454;53.170;6.630;2022-07-06T08:39:56;17.00;91.00
60635;DHT22;46454;53.170;6.630;2022-07-06T08:42:25;17.10;91.20
60635;DHT22;46454;53.170;6.630;2022-07-06T08:44:55;17.10;90.80
60635;DHT22;46454;53.170;6.630;2022-07-06T08:47:22;17.20;91.10
60635;DHT22;46454;53.170;6.630;2022-07-06T08:49:48;17.30;90.60
60635;DHT22;46454;53.170;6.630;2022-07-06T08:52:15;17.30;90.70
60635;DHT22;46454;53.170;6.630;2022-07-06T08:54:41;17.40;90.10
60635;DHT22;46454;53.170;6.630;2022-07-06T08:57:07;17.40;89.40
60635;DHT22;46454;53.170;6.630;2022-07-06T08:59:33;17.50;88.70
60635;DHT22;46454;53.170;6.630;2022-07-06T09:01:59;17.50;90.00
60635;DHT22;46454;53.170;6.630;2022-07-06T09:04:26;17.50;88.40
60635;DHT22;46454;53.170;6.630;2022-07-06T09:06:53;17.60;88.50
60635;DHT22;46454;53.170;6.630;2022-07-06T09:09:21;17.70;89.40
60635;DHT22;46454;53.170;6.630;2022-07-06T09:11:50;17.80;88.90
60635;DHT22;46454;53.170;6.630;2022-07-06T09:14:17;17.80;88.00
60635;DHT22;46454;53.170;6.630;2022-07-06T09:16:48;17.90;88.10
60635;DHT22;46454;53.170;6.630;2022-07-06T09:19:16;17.90;89.10
60635;DHT22;46454;53.170;6.630;2022-07-06T09:21:42;17.80;89.20
60635;DHT22;46454;53.170;6.630;2022-07-06T09:24:10;17.70;88.60
60635;DHT22;46454;53.170;6.630;2022-07-06T09:26:36;17.70;88.80
60635;DHT22;46454;53.170;6.630;2022-07-06T09:29:02;17.60;89.40
60635;DHT22;46454;53.170;6.630;2022-07-06T09:31:32;17.60;90.10
60635;DHT22;46454;53.170;6.630;2022-07-06T09:34:05;17.50;90.40
60635;DHT22;46454;53.170;6.630;2022-07-06T09:39:28;17.50;90.10
60635;DHT22;46454;53.170;6.630;2022-07-06T09:41:56;17.60;89.80
60635;DHT22;46454;53.170;6.630;2022-07-06T09:44:33;17.70;89.70
60635;DHT22;46454;53.170;6.630;2022-07-06T09:47:02;17.80;90.00
60635;DHT22;46454;53.170;6.630;2022-07-06T09:49:28;18.00;90.30
60635;DHT22;46454;53.170;6.630;2022-07-06T09:51:56;18.20;89.30
60635;DHT22;46454;53.170;6.630;2022-07-06T09:54:22;18.40;88.60
60635;DHT22;46454;53.170;6.630;2022-07-06T09:56:50;18.60;87.00
60635;DHT22;46454;53.170;6.630;2022-07-06T09:59:18;18.60;87.50
60635;DHT22;46454;53.170;6.630;2022-07-06T10:01:45;18.60;87.90
60635;DHT22;46454;53.170;6.630;2022-07-06T10:04:12;18.50;87.70
60635;DHT22;46454;53.170;6.630;2022-07-06T10:06:39;18.50;86.90
60635;DHT22;46454;53.170;6.630;2022-07-06T10:09:07;18.50;87.60
60635;DHT22;46454;53.170;6.630;2022-07-06T10:11:56;18.50;88.20
60635;DHT22;46454;53.170;6.630;2022-07-06T10:14:27;18.40;87.00
60635;DHT22;46454;53.170;6.630;2022-07-06T10:16:56;18.30;88.00
60635;DHT22;46454;53.170;6.630;2022-07-06T10:19:22;18.30;88.40
60635;DHT22;46454;53.170;6.630;2022-07-06T10:21:49;18.30;87.70
60635;DHT22;46454;53.170;6.630;2022-07-06T10:24:18;18.40;87.90
60635;DHT22;46454;53.170;6.630;2022-07-06T10:26:45;18.40;86.90
60635;DHT22;46454;53.170;6.630;2022-07-06T10:29:11;18.50;87.30
60635;DHT22;46454;53.170;6.630;2022-07-06T10:31:40;18.60;87.00
60635;DHT22;46454;53.170;6.630;2022-07-06T10:34:11;18.70;87.00
60635;DHT22;46454;53.170;6.630;2022-07-06T10:36:39;18.90;86.90
60635;DHT22;46454;53.170;6.630;2022-07-06T10:39:05;19.00;85.80
60635;DHT22;46454;53.170;6.630;2022-07-06T10:41:49;19.10;85.10
60635;DHT22;46454;53.170;6.630;2022-07-06T10:44:24;19.20;83.70
60635;DHT22;46454;53.170;6.630;2022-07-06T10:46:55;19.30;82.40
60635;DHT22;46454;53.170;6.630;2022-07-06T10:49:22;19.40;82.30
60635;DHT22;46454;53.170;6.630;2022-07-06T10:51:48;19.40;83.60
60635;DHT22;46454;53.170;6.630;2022-07-06T10:54:17;19.60;82.10
60635;DHT22;46454;53.170;6.630;2022-07-06T10:56:49;19.70;82.80
60635;DHT22;46454;53.170;6.630;2022-07-06T10:59:21;19.80;82.00
60635;DHT22;46454;53.170;6.630;2022-07-06T11:02:19;19.90;81.70
60635;DHT22;46454;53.170;6.630;2022-07-06T11:04:49;19.90;79.70
60635;DHT22;46454;53.170;6.630;2022-07-06T11:07:16;19.80;79.00
60635;DHT22;46454;53.170;6.630;2022-07-06T11:09:55;19.70;80.50
60635;DHT22;46454;53.170;6.630;2022-07-06T11:12:21;19.70;79.20
60635;DHT22;46454;53.170;6.630;2022-07-06T11:14:49;19.70;80.70
60635;DHT22;46454;53.170;6.630;2022-07-06T11:17:15;19.70;81.60
60635;DHT22;46454;53.170;6.630;2022-07-06T11:19:57;19.70;80.00
60635;DHT22;46454;53.170;6.630;2022-07-06T11:22:24;19.70;80.40
60635;DHT22;46454;53.170;6.630;2022-07-06T11:24:52;19.70;81.20
60635;DHT22;46454;53.170;6.630;2022-07-06T11:27:18;19.80;78.00
60635;DHT22;46454;53.170;6.630;2022-07-06T11:29:47;20.00;77.20
60635;DHT22;46454;53.170;6.630;2022-07-06T11:32:13;20.10;75.70
60635;DHT22;46454;53.170;6.630;2022-07-06T11:34:42;20.20;76.50
60635;DHT22;46454;53.170;6.630;2022-07-06T11:37:13;20.10;77.30
60635;DHT22;46454;53.170;6.630;2022-07-06T11:39:40;20.10;77.00
60635;DHT22;46454;53.170;6.630;2022-07-06T11:42:12;20.00;77.40
60635;DHT22;46454;53.170;6.630;2022-07-06T11:44:38;20.00;77.10
60635;DHT22;46454;53.170;6.630;2022-07-06T11:47:06;20.00;78.00
60635;DHT22;46454;53.170;6.630;2022-07-06T11:49:33;20.10;78.30
60635;DHT22;46454;53.170;6.630;2022-07-06T11:52:00;20.20;75.60
60635;DHT22;46454;53.170;6.630;2022-07-06T11:54:32;20.30;74.60
60635;DHT22;46454;53.170;6.630;2022-07-06T11:56:59;20.40;74.80
60635;DHT22;46454;53.170;6.630;2022-07-06T11:59:33;20.40;74.90
60635;DHT22;46454;53.170;6.630;2022-07-06T12:02:05;20.40;75.50
60635;DHT22;46454;53.170;6.630;2022-07-06T12:04:32;20.60;76.70
60635;DHT22;46454;53.170;6.630;2022-07-06T12:07:03;20.70;75.10
60635;DHT22;46454;53.170;6.630;2022-07-06T12:09:33;20.90;71.70
60635;DHT22;46454;53.170;6.630;2022-07-06T12:12:00;20.90;73.60
60635;DHT22;46454;53.170;6.630;2022-07-06T12:14:30;20.90;74.10
60635;DHT22;46454;53.170;6.630;2022-07-06T12:16:56;20.80;73.10
60635;DHT22;46454;53.170;6.630;2022-07-06T12:19:27;20.80;72.80
60635;DHT22;46454;53.170;6.630;2022-07-06T12:21:53;20.80;72.80
60635;DHT22;46454;53.170;6.630;2022-07-06T12:24:21;20.70;71.70
60635;DHT22;46454;53.170;6.630;2022-07-06T12:26:48;20.60;71.40
60635;DHT22;46454;53.170;6.630;2022-07-06T12:29:13;20.60;71.20
60635;DHT22;46454;53.170;6.630;2022-07-06T12:31:51;20.70;72.90
60635;DHT22;46454;53.170;6.630;2022-07-06T12:34:20;20.70;72.20
60635;DHT22;46454;53.170;6.630;2022-07-06T12:36:48;20.60;73.00
60635;DHT22;46454;53.170;6.630;2022-07-06T12:39:15;20.60;72.40
60635;DHT22;46454;53.170;6.630;2022-07-06T12:41:46;20.40;72.30
60635;DHT22;46454;53.170;6.630;2022-07-06T12:44:13;20.40;72.10
60635;DHT22;46454;53.170;6.630;2022-07-06T12:46:40;20.40;72.00
60635;DHT22;46454;53.170;6.630;2022-07-06T12:49:18;20.50;73.40
60635;DHT22;46454;53.170;6.630;2022-07-06T12:54:18;20.70;73.10
60635;DHT22;46454;53.170;6.630;2022-07-06T12:57:19;20.70;73.20
60635;DHT22;46454;53.170;6.630;2022-07-06T12:59:47;20.70;71.30
60635;DHT22;46454;53.170;6.630;2022-07-06T13:04:46;20.50;72.30
60635;DHT22;46454;53.170;6.630;2022-07-06T13:07:19;20.40;74.90
60635;DHT22;46454;53.170;6.630;2022-07-06T13:09:45;20.30;74.70
60635;DHT22;46454;53.170;6.630;2022-07-06T13:12:11;20.20;74.20
60635;DHT22;46454;53.170;6.630;2022-07-06T13:14:36;20.00;73.80
60635;DHT22;46454;53.170;6.630;2022-07-06T13:17:02;20.00;72.60
60635;DHT22;46454;53.170;6.630;2022-07-06T13:19:28;19.90;74.20
60635;DHT22;46454;53.170;6.630;2022-07-06T13:21:54;19.90;72.80
60635;DHT22;46454;53.170;6.630;2022-07-06T13:24:20;20.00;73.10
60635;DHT22;46454;53.170;6.630;2022-07-06T13:26:45;20.10;73.20
60635;DHT22;46454;53.170;6.630;2022-07-06T13:29:12;20.20;74.20
60635;DHT22;46454;53.170;6.630;2022-07-06T13:31:39;20.30;71.80
60635;DHT22;46454;53.170;6.630;2022-07-06T13:34:05;20.30;73.10
60635;DHT22;46454;53.170;6.630;2022-07-06T13:36:32;20.20;72.60
60635;DHT22;46454;53.170;6.630;2022-07-06T13:38:57;20.20;72.20
60635;DHT22;46454;53.170;6.630;2022-07-06T13:41:23;20.10;72.90
60635;DHT22;46454;53.170;6.630;2022-07-06T13:43:49;20.10;73.60
60635;DHT22;46454;53.170;6.630;2022-07-06T13:46:15;20.10;74.30
60635;DHT22;46454;53.170;6.630;2022-07-06T13:48:42;20.00;75.50
60635;DHT22;46454;53.170;6.630;2022-07-06T13:51:08;19.90;73.00
60635;DHT22;46454;53.170;6.630;2022-07-06T13:53:34;19.80;72.30
60635;DHT22;46454;53.170;6.630;2022-07-06T13:56:00;19.70;72.50
60635;DHT22;46454;53.170;6.630;2022-07-06T13:58:26;19.60;74.40
60635;DHT22;46454;53.170;6.630;2022-07-06T14:00:52;19.60;75.90
60635;DHT22;46454;53.170;6.630;2022-07-06T14:03:17;19.50;76.20
60635;DHT22;46454;53.170;6.630;2022-07-06T14:05:43;19.40;75.00
60635;DHT22;46454;53.170;6.630;2022-07-06T14:08:09;19.50;75.90
60635;DHT22;46454;53.170;6.630;2022-07-06T14:10:35;19.40;75.50
60635;DHT22;46454;53.170;6.630;2022-07-06T14:13:00;19.40;75.80
60635;DHT22;46454;53.170;6.630;2022-07-06T14:15:26;19.40;75.70
60635;DHT22;46454;53.170;6.630;2022-07-06T14:17:55;19.40;74.90
60635;DHT22;46454;53.170;6.630;2022-07-06T14:20:20;19.40;74.50
60635;DHT22;46454;53.170;6.630;2022-07-06T14:22:46;19.30;73.30
60635;DHT22;46454;53.170;6.630;2022-07-06T14:25:12;19.30;74.50
60635;DHT22;46454;53.170;6.630;2022-07-06T14:27:37;19.30;74.20
60635;DHT22;46454;53.170;6.630;2022-07-06T14:30:04;19.20;75.20
60635;DHT22;46454;53.170;6.630;2022-07-06T14:32:29;19.20;75.20
60635;DHT22;46454;53.170;6.630;2022-07-06T14:34:58;19.20;75.40
60635;DHT22;46454;53.170;6.630;2022-07-06T14:37:24;19.20;77.00
60635;DHT22;46454;53.170;6.630;2022-07-06T14:39:49;19.10;77.00
60635;DHT22;46454;53.170;6.630;2022-07-06T14:42:16;19.10;76.30
60635;DHT22;46454;53.170;6.630;2022-07-06T14:44:42;19.00;76.00
60635;DHT22;46454;53.170;6.630;2022-07-06T14:47:07;19.00;76.20
60635;DHT22;46454;53.170;6.630;2022-07-06T14:49:33;19.00;77.70
60635;DHT22;46454;53.170;6.630;2022-07-06T14:51:59;19.00;78.20
60635;DHT22;46454;53.170;6.630;2022-07-06T14:54:25;19.00;78.20
60635;DHT22;46454;53.170;6.630;2022-07-06T14:56:50;19.00;77.90
60635;DHT22;46454;53.170;6.630;2022-07-06T14:59:16;19.00;78.60
60635;DHT22;46454;53.170;6.630;2022-07-06T15:01:45;19.00;77.60
60635;DHT22;46454;53.170;6.630;2022-07-06T15:04:11;18.90;77.80
60635;DHT22;46454;53.170;6.630;2022-07-06T15:06:37;18.90;79.00
60635;DHT22;46454;53.170;6.630;2022-07-06T15:09:03;18.90;79.10
60635;DHT22;46454;53.170;6.630;2022-07-06T15:11:31;18.80;79.60
60635;DHT22;46454;53.170;6.630;2022-07-06T15:13:57;18.80;80.50
60635;DHT22;46454;53.170;6.630;2022-07-06T15:16:23;18.70;81.20
60635;DHT22;46454;53.170;6.630;2022-07-06T15:18:50;18.60;82.50
60635;DHT22;46454;53.170;6.630;2022-07-06T15:21:16;18.60;83.60
60635;DHT22;46454;53.170;6.630;2022-07-06T15:23:41;18.50;84.90
60635;DHT22;46454;53.170;6.630;2022-07-06T15:26:07;18.50;85.20
60635;DHT22;46454;53.170;6.630;2022-07-06T15:28:33;18.40;86.50
60635;DHT22;46454;53.170;6.630;2022-07-06T15:30:59;18.40;85.70
60635;DHT22;46454;53.170;6.630;2022-07-06T15:33:33;18.30;85.80
60635;DHT22;46454;53.170;6.630;2022-07-06T15:35:58;18.30;86.30
60635;DHT22;46454;53.170;6.630;2022-07-06T15:38:24;18.20;86.90
60635;DHT22;46454;53.170;6.630;2022-07-06T15:40:53;18.20;86.50
60635;DHT22;46454;53.170;6.630;2022-07-06T15:43:29;18.20;86.80
60635;DHT22;46454;53.170;6.630;2022-07-06T15:45:57;18.20;86.80
60635;DHT22;46454;53.170;6.630;2022-07-06T15:48:24;18.20;87.10